Terminal Aerodrome Forecast
Issued by NWS Flagstaff, AZ

Home | Current Version | Previous Version | Text Only | Print | Product List | Glossary On
Versions: 1 2 3 4 5 6 7 8 9 10 11 12 13 14 15 16 17 18 19 20 21 22 23 24 25 26 27 28 29 30 31 32
285
FTUS45 KFGZ 012320
TAFFLG
TAF
KFLG 012320Z 0200/0224 17005KT P6SM SCT020 BKN035
     FM020400 VRB02KT P6SM VCFG SCT012 BKN020
     FM020600 VRB02KT 1SM BR BKN006
     FM021500 VRB04KT P6SM SCT015 SCT050
     FM021800 07007KT P6SM BKN035 PROB30 0218/0224 5SM -SHRA=

USA.gov is the U.S. government's official web portal to all federal, state and local government web resources and services.